Terminal Aerodrome Forecast
Issued by NWS

Home | Current Version | Previous Version | Graphics & Text | Print | Product List | Glossary On
Versions: 1 2 3 4 5 6 7 8 9 10 11 12 13 14 15 16 17 18 19 20 21 22 23 24 25 26 27 28 29 30 31 32 33 34 35 36 37 38 39 40 41
000
FTUS43 KLOT 131700
TAFORD
TAF
KORD 131740Z 1318/1424 07012KT 6SM BR VCSH BKN007 BKN030
      TEMPO 1318/1319 2SM BR OVC007
     FM131900 06010KT 2SM -SHRA BR OVC006
      TEMPO 1320/1323 04012KT 2SM -TSRA OVC006CB
     FM132300 08010KT 3SM SHRA BR OVC006
      TEMPO 1323/1401 2SM TSRA OVC006CB
     FM140300 21012G18KT 4SM SHRA VCTS OVC009CB
     FM140900 36018G30KT 4SM RA BR OVC009
     FM141500 35017G28KT 6SM -RA OVC015
     FM141800 35015G24KT P6SM VCSH BKN015 PROB30 1418/1424 5SM RASN=

USA.gov is the U.S. government's official web portal to all federal, state and local government web resources and services.